Flight Track Log - Related Links

Times and Time Zones

All times are in EDT time to prevent confusion due to time zone crossing. See the SKW5550 flight status page for this flight to view local times or setup timezone preferences in your user account.

Time Position Orientation Groundspeed Altitude Reporting Facility
EDT Latitude Longitude Course Direction KTS MPH feet Rate Location/Type
Wed 09:53:00 AM 44.0453 -108.5419 157° South  Level Estimated
Wed 09:54:00 AM 43.9514 -108.5034 164° South  Level FlightAware Approximate
Wed 09:54:23 AM 44.5097 -109.0622 154° Southeast 193 222 6,100  Level Salt Lake Center
Wed 09:55:00 AM 43.8653 -108.4160 144° Southeast  Level Estimated
Wed 09:55:24 AM 44.5497 -109.0633 359° North 204 235 8,200  Level Salt Lake Center
Wed 09:56:00 AM 43.7639 -108.3699 162° South  Level FlightAware Approximate
Wed 09:56:25 AM 44.5961 -109.0031 43° Northeast 214 246 10,200  Level Salt Lake Center
Wed 09:57:00 AM 43.6780 -108.2822 140° Southeast  Level Estimated
Wed 09:57:27 AM 44.5725 -108.9231 112° Southeast 243 280 11,900  Level Salt Lake Center
Wed 09:58:00 AM 43.5819 -108.2181 154° Southeast  Level FlightAware Approximate
Wed 09:58:28 AM 44.4958 -108.8947 165° South 271 312 13,600  Level Salt Lake Center
Wed 09:59:00 AM 43.4858 -108.1542 154° Southeast  Level FlightAware Approximate
Wed 09:59:29 AM 44.4039 -108.8081 146° Southeast 326 375 15,400  Level Salt Lake Center
Wed 10:00:30 AM 44.3211 -108.7333 147° Southeast 345 397 17,100 1,610 Climbing Salt Lake Center
Wed 10:01:32 AM 44.2389 -108.6567 146° Southeast 354 407 18,700 1,512 Climbing Salt Lake Center
Wed 10:02:33 AM 44.1539 -108.5800 147° Southeast 361 415 20,200 1,426 Climbing Salt Lake Center
Wed 10:03:34 AM 44.0681 -108.5022 147° Southeast 368 423 21,600 1,279 Climbing Salt Lake Center
Wed 10:04:35 AM 43.9814 -108.4222 146° Southeast 375 432 22,800 1,171 Climbing Salt Lake Center
Wed 10:05:37 AM 43.8922 -108.3428 147° Southeast 380 437 24,000 1,024 Climbing Salt Lake Center
Wed 10:06:38 AM 43.8014 -108.2606 147° Southeast 390 449 24,900 984 Climbing Salt Lake Center
Wed 10:07:39 AM 43.6914 -108.1625 147° Southeast 395 455 26,000 927 Climbing Salt Lake Center
Wed 10:08:41 AM 43.5975 -108.0789 147° Southeast 400 460 26,800 488 Climbing Salt Lake Center
Wed 10:09:42 AM 43.5028 -107.9953 147° Southeast 406 467 27,000 98 Climbing Salt Lake Center
Wed 10:10:43 AM 43.4072 -107.9103 147° Southeast 410 472 27,000  Level Salt Lake Center
Wed 10:11:45 AM 43.3131 -107.8250 147° Southeast 407 468 27,000  Level Salt Lake Center
Wed 10:12:46 AM 43.2181 -107.7417 147° Southeast 406 467 27,000  Level Salt Lake Center
Wed 10:13:47 AM 43.1219 -107.6583 148° Southeast 411 473 27,000  Level Salt Lake Center
Wed 10:14:49 AM 43.0258 -107.5733 147° Southeast 413 475 27,000  Level Salt Lake Center
Wed 10:15:50 AM 42.9197 -107.4808 147° Southeast 409 471 27,000  Level Salt Lake Center
Wed 10:16:52 AM 42.8214 -107.4358 161° South 394 453 27,000  Level Salt Lake Center
Wed 10:17:53 AM 42.7125 -107.4044 168° South 364 419 27,000  Level Salt Lake Center
Wed 10:18:54 AM 42.6272 -107.3356 149° Southeast 373 429 27,000  Level Salt Lake Center
Wed 10:19:56 AM 42.5208 -107.2353 145° Southeast 403 464 27,000  Level Salt Lake Center
Wed 10:20:57 AM 42.4294 -107.1483 145° Southeast 416 479 27,000  Level Salt Lake Center
Wed 10:21:59 AM 42.3389 -107.0617 145° Southeast 418 481 27,000  Level Salt Lake Center
Wed 10:23:00 AM 42.2331 -106.9600 145° Southeast 419 482 27,000  Level Salt Lake Center
Wed 10:24:06 AM 42.1272 -106.8575 144° Southeast 418 481 27,000  Level Denver Center
Wed 10:25:08 AM 42.0369 -106.7728 145° Southeast 415 478 27,000  Level Denver Center
Wed 10:26:10 AM 41.9314 -106.6728 145° Southeast 415 478 27,000  Level Denver Center
Wed 10:27:12 AM 41.8414 -106.5864 144° Southeast 415 478 27,000  Level Denver Center
Wed 10:28:14 AM 41.7469 -106.4975 145° Southeast 419 482 27,000  Level Denver Center
Wed 10:29:16 AM 41.6425 -106.3983 145° Southeast 415 478 27,000  Level Denver Center
Wed 10:30:18 AM 41.5497 -106.3128 145° Southeast 421 484 27,000  Level Denver Center
Wed 10:31:20 AM 41.4439 -106.2133 145° Southeast 420 483 27,000  Level Denver Center
Wed 10:32:22 AM 41.3519 -106.1292 145° Southeast 419 482 27,000  Level Denver Center
Wed 10:33:24 AM 41.2447 -106.0281 145° Southeast 422 486 27,000  Level Denver Center
Wed 10:34:27 AM 41.1542 -105.9444 145° Southeast 417 480 27,000  Level Denver Center
Wed 10:35:29 AM 41.0472 -105.8469 145° Southeast 417 480 27,000  Level Denver Center
Wed 10:36:31 AM 40.9639 -105.7700 145° Southeast 414 476 27,000  Level Denver Center
Wed 10:37:33 AM 40.8483 -105.6653 146° Southeast 419 482 27,000 -339 Level Denver Center
Wed 10:38:35 AM 40.7539 -105.5794 145° Southeast 414 476 26,300 -1,790 Descending Denver Center
Wed 10:39:37 AM 40.6617 -105.4944 145° Southeast 407 468 23,300 -2,661 Descending Denver Center
Wed 10:40:39 AM 40.5861 -105.4044 138° Southeast 377 434 20,800 -2,371 Descending Denver Center
Wed 10:41:41 AM 40.5272 -105.3008 127° Southeast 355 409 18,400 -2,032 Descending Denver Center
Wed 10:42:43 AM 40.4756 -105.1792 119° Southeast 334 384 16,600 -1,161 Descending Denver Center
Wed 10:43:45 AM 40.4475 -105.0786 110° East 298 343 16,000 -484 Descending Denver Center
Wed 10:44:47 AM 40.4219 -104.9906 111° Southeast 265 305 15,600 -823 Descending Denver Center
Wed 10:45:49 AM 40.3942 -104.8939 111° Southeast 263 303 14,300 -1,306 Descending Denver Center
Wed 10:46:51 AM 40.3686 -104.8081 111° Southeast 255 293 12,900 -1,452 Descending Denver Center
Wed 10:47:53 AM 40.3011 -104.7797 162° South 235 270 11,300 -1,500 Descending Denver Center
Wed 10:48:55 AM 40.2353 -104.7633 169° South 240 276 9,800 -1,113 Descending Denver Center
Wed 10:49:57 AM 40.1647 -104.7442 168° South 241 277 9,000 -387 Descending Denver Center
Wed 10:50:59 AM 40.1000 -104.7269 168° South 237 273 9,000 -528 Level Denver Center
Wed 10:52:02 AM 40.0294 -104.7086 169° South 240 276 7,900 -768 Descending Denver Center
Wed 10:53:04 AM 39.9681 -104.6917 168° South 228 262 7,400 629 Descending Denver Center
Wed 10:54:06 AM 39.9097 -104.7206 201° Southwest 273 314 9,200 1,742 Climbing Denver Center
Wed 10:55:08 AM 39.8536 -104.8036 229° Southwest 305 351 11,000 581 Climbing Denver Center
Wed 10:56:10 AM 39.7719 -104.8000 178° South 274 315 10,400 -774 Descending Denver Center
Wed 10:57:12 AM 39.7092 -104.7803 166° South 231 266 9,400 -1,016 Descending Denver Center
Wed 10:58:14 AM 39.6967 -104.7111 103° East 223 257 8,300 -960 Descending Denver Center
Wed 10:59:17 AM 39.7558 -104.6875 17° North 225 259 7,400 -864 Descending Denver Center
Wed 11:00:19 AM 39.8131 -104.6875 360° North 204 235 6,500 -919 Descending Denver Center
Wed 11:01:21 AM 39.8581 -104.6875 360° North 137 158 5,500 -968 Descending Denver Center

Login

Don't have an account? Register now (free) for customized features, flight alerts, and more!